Time;durP1;ratioP1;P1;durP2;ratioP2;P2;SDS_P1;SDS_P2;PMS_P1;PMS_P2;Temp;Humidity;BMP_temperature;BMP_pressure;BME280_temperature;BME280_humidity;BME280_pressure;Samples;Min_cycle;Max_cycle;Signal;HPM_P1;HPM_P2
2021/12/29 00:00:26;;;;;;;3.47;1.90;;;9.60;99.90;;;;;;5075856;28;20852;-57
2021/12/29 00:02:53;;;;;;;1.93;1.30;;;9.60;99.90;;;;;;5076172;28;20766;-57
2021/12/29 00:05:21;;;;;;;2.63;1.50;;;9.60;99.90;;;;;;5075887;28;20531;-57
2021/12/29 00:07:48;;;;;;;5.40;1.90;;;9.60;99.90;;;;;;5075994;28;20428;-57
2021/12/29 00:10:16;;;;;;;9.03;2.13;;;9.60;99.90;;;;;;5075804;28;20555;-57
2021/12/29 00:12:47;;;;;;;2.37;1.60;;;9.60;99.90;;;;;;5075640;28;20974;-58
2021/12/29 00:15:17;;;;;;;6.20;2.13;;;9.70;99.90;;;;;;5075827;28;20428;-57
2021/12/29 00:17:45;;;;;;;3.30;1.90;;;9.80;99.90;;;;;;5076174;28;20432;-57
2021/12/29 00:20:15;;;;;;;2.57;1.70;;;9.90;99.90;;;;;;5075646;28;20484;-58
2021/12/29 00:22:42;;;;;;;2.27;1.57;;;9.90;99.90;;;;;;5075258;28;20864;-57
2021/12/29 00:25:10;;;;;;;2.33;1.60;;;9.80;99.90;;;;;;5075388;28;20536;-57
2021/12/29 00:27:38;;;;;;;3.63;1.70;;;9.80;99.90;;;;;;5075452;28;20444;-57
2021/12/29 00:30:08;;;;;;;3.07;1.80;;;9.80;99.90;;;;;;5075517;28;20828;-57
2021/12/29 00:32:36;;;;;;;6.23;1.60;;;9.80;99.90;;;;;;5075401;28;20453;-57
2021/12/29 00:35:04;;;;;;;7.93;2.10;;;9.70;99.90;;;;;;5075594;28;20819;-57
2021/12/29 00:37:31;;;;;;;4.80;1.70;;;9.70;99.90;;;;;;5075678;28;20463;-57
2021/12/29 00:39:58;;;;;;;5.57;1.90;;;9.70;99.90;;;;;;5075376;28;20837;-57
2021/12/29 00:42:25;;;;;;;2.37;1.60;;;9.70;99.90;;;;;;5075219;28;20788;-57
2021/12/29 00:44:53;;;;;;;4.47;1.83;;;9.70;99.90;;;;;;5075012;28;20450;-57
2021/12/29 00:47:21;;;;;;;3.00;1.23;;;9.70;99.90;;;;;;5075271;28;20448;-57
2021/12/29 00:49:49;;;;;;;4.07;1.70;;;9.70;99.90;;;;;;5075354;28;20803;-56
2021/12/29 00:52:16;;;;;;;2.43;1.50;;;9.70;99.90;;;;;;5074875;28;20923;-57
2021/12/29 00:54:45;;;;;;;8.03;1.83;;;9.60;99.90;;;;;;5075131;28;20448;-57
2021/12/29 00:57:12;;;;;;;3.60;1.80;;;9.60;99.90;;;;;;5074913;28;20458;-57
2021/12/29 00:59:40;;;;;;;8.43;1.70;;;9.70;99.90;;;;;;5074694;28;20476;-57
2021/12/29 01:02:07;;;;;;;2.20;1.20;;;9.70;99.90;;;;;;5074990;28;20448;-57
2021/12/29 01:04:34;;;;;;;2.83;1.60;;;9.60;99.90;;;;;;5075072;28;20451;-57
2021/12/29 01:07:03;;;;;;;2.27;1.60;;;9.50;99.90;;;;;;5074921;28;20463;-57
2021/12/29 01:09:30;;;;;;;1.90;1.40;;;9.50;99.90;;;;;;5074578;28;20444;-57
2021/12/29 01:11:59;;;;;;;3.13;1.60;;;9.60;99.90;;;;;;5073904;28;20472;-57
2021/12/29 01:14:30;;;;;;;4.27;2.80;;;9.60;99.90;;;;;;5074895;28;20455;-57
2021/12/29 01:16:57;;;;;;;2.47;1.20;;;9.50;99.90;;;;;;5074806;28;20441;-57
2021/12/29 01:19:27;;;;;;;2.07;1.40;;;9.60;99.90;;;;;;5073633;28;20989;-57
2021/12/29 01:21:57;;;;;;;1.50;1.40;;;9.40;99.90;;;;;;5074688;28;20472;-57
2021/12/29 01:24:27;;;;;;;2.43;1.30;;;9.50;99.90;;;;;;5074542;28;20459;-57
2021/12/29 01:26:55;;;;;;;3.10;1.50;;;9.50;99.90;;;;;;5074256;28;20954;-57
2021/12/29 01:29:23;;;;;;;2.17;1.57;;;9.40;99.90;;;;;;5074634;28;20440;-57
2021/12/29 01:31:50;;;;;;;2.73;1.50;;;9.40;99.90;;;;;;5074453;28;20551;-57
2021/12/29 01:34:18;;;;;;;2.50;1.60;;;9.40;99.90;;;;;;5074094;28;20444;-58
2021/12/29 01:36:45;;;;;;;3.07;1.17;;;9.40;99.90;;;;;;5074327;28;20468;-57
2021/12/29 01:39:15;;;;;;;7.60;1.77;;;9.60;99.90;;;;;;5074004;28;20452;-57
2021/12/29 01:41:44;;;;;;;2.70;1.60;;;9.50;99.90;;;;;;5074000;28;20445;-57
2021/12/29 01:44:13;;;;;;;1.60;1.40;;;9.50;99.90;;;;;;5074140;28;20444;-57
2021/12/29 01:46:42;;;;;;;2.33;1.33;;;9.60;99.90;;;;;;5074039;28;20449;-57
2021/12/29 01:49:09;;;;;;;1.30;1.20;;;9.60;99.90;;;;;;5073990;28;20445;-57
2021/12/29 01:51:42;;;;;;;2.57;1.63;;;9.60;99.90;;;;;;5074100;28;20466;-57
2021/12/29 01:54:17;;;;;;;2.60;1.50;;;9.70;99.90;;;;;;5074180;28;20762;-57
2021/12/29 01:56:46;;;;;;;1.80;1.20;;;9.70;99.90;;;;;;5074323;28;20431;-57
2021/12/29 01:59:15;;;;;;;3.63;1.50;;;9.80;99.90;;;;;;5073618;28;20447;-57
2021/12/29 02:01:43;;;;;;;2.33;1.27;;;9.70;99.90;;;;;;5073455;28;20528;-57
2021/12/29 02:04:10;;;;;;;3.03;1.40;;;9.80;99.90;;;;;;5073853;28;20444;-57
2021/12/29 02:06:38;;;;;;;1.50;1.40;;;9.80;99.90;;;;;;5073816;28;20482;-57
2021/12/29 02:09:05;;;;;;;1.93;1.20;;;9.80;99.90;;;;;;5073730;28;20454;-57
2021/12/29 02:11:34;;;;;;;1.50;1.10;;;9.70;99.90;;;;;;5073233;28;20990;-57
2021/12/29 02:14:05;;;;;;;3.33;1.27;;;9.70;99.90;;;;;;5073375;28;20954;-57
2021/12/29 02:16:33;;;;;;;2.60;1.00;;;9.60;99.90;;;;;;5073750;28;20440;-57
2021/12/29 02:19:01;;;;;;;1.27;1.00;;;9.70;99.90;;;;;;5073503;28;20445;-58
2021/12/29 02:21:32;;;;;;;1.83;1.47;;;9.70;99.90;;;;;;5073278;28;20484;-57
2021/12/29 02:26:48;;;;;;;1.17;1.07;;;9.60;99.90;;;;;;5067696;28;20482;-56
2021/12/29 02:29:19;;;;;;;1.20;1.07;;;9.60;99.90;;;;;;5073171;28;20494;-56
2021/12/29 02:31:47;;;;;;;1.30;1.20;;;9.70;99.90;;;;;;5073319;28;20551;-56
2021/12/29 02:34:17;;;;;;;2.43;1.37;;;9.70;99.90;;;;;;5073229;28;20451;-58
2021/12/29 02:36:47;;;;;;;1.37;1.27;;;9.60;99.90;;;;;;5073340;28;20459;-56
2021/12/29 02:39:17;;;;;;;1.50;1.20;;;9.80;99.90;;;;;;5073373;28;20432;-56
2021/12/29 02:41:46;;;;;;;1.83;1.20;;;9.90;99.90;;;;;;5073478;28;20465;-56
2021/12/29 02:44:20;;;;;;;1.20;1.10;;;9.80;99.90;;;;;;5072941;28;20931;-56
2021/12/29 02:46:48;;;;;;;1.47;1.20;;;9.80;99.90;;;;;;5073026;28;20433;-56
2021/12/29 02:49:15;;;;;;;3.30;1.30;;;9.80;99.90;;;;;;5073264;28;20448;-57
2021/12/29 02:51:42;;;;;;;2.23;1.20;;;9.80;99.90;;;;;;5073309;28;20478;-57
2021/12/29 02:54:12;;;;;;;4.93;1.30;;;9.80;99.90;;;;;;5072942;28;20450;-57
2021/12/29 02:56:39;;;;;;;1.40;1.30;;;9.80;99.90;;;;;;5073188;28;20823;-57
2021/12/29 02:59:06;;;;;;;1.50;1.40;;;9.90;99.90;;;;;;5072993;28;20547;-57
2021/12/29 03:01:33;;;;;;;2.40;1.30;;;9.90;99.90;;;;;;5072733;28;21008;-57
2021/12/29 03:04:05;;;;;;;2.90;1.20;;;9.80;99.90;;;;;;5072893;28;20451;-57
2021/12/29 03:06:33;;;;;;;1.30;1.10;;;9.80;99.90;;;;;;5073179;28;20456;-57
2021/12/29 03:09:00;;;;;;;1.23;1.13;;;9.80;99.90;;;;;;5073121;28;20449;-57
2021/12/29 03:11:28;;;;;;;1.20;1.10;;;9.80;99.90;;;;;;5072551;28;20475;-56
2021/12/29 03:13:55;;;;;;;2.33;2.07;;;9.80;99.90;;;;;;5073146;28;20532;-57
2021/12/29 03:16:24;;;;;;;1.40;1.30;;;9.80;99.90;;;;;;5072857;28;20977;-57
2021/12/29 03:18:51;;;;;;;1.47;1.23;;;9.80;99.90;;;;;;5072697;28;20905;-56
2021/12/29 03:21:19;;;;;;;2.70;1.33;;;9.90;99.90;;;;;;5072558;28;20514;-56
2021/12/29 03:23:48;;;;;;;1.50;1.20;;;9.90;99.90;;;;;;5073173;28;20448;-58
2021/12/29 03:26:16;;;;;;;2.03;1.30;;;9.80;99.90;;;;;;5072844;28;20539;-56
2021/12/29 03:28:44;;;;;;;1.20;1.10;;;9.90;99.90;;;;;;5072882;28;20448;-56
2021/12/29 03:31:14;;;;;;;1.20;1.10;;;9.90;99.90;;;;;;5072977;28;20812;-56
2021/12/29 03:33:42;;;;;;;2.00;1.23;;;9.90;99.90;;;;;;5072762;28;20444;-58
2021/12/29 03:36:11;;;;;;;1.90;1.17;;;9.90;99.90;;;;;;5072661;28;20451;-56
2021/12/29 03:38:40;;;;;;;2.60;1.10;;;9.90;99.90;;;;;;5072873;28;20445;-56
2021/12/29 03:41:11;;;;;;;1.30;1.20;;;9.90;99.90;;;;;;5072760;28;20567;-56
2021/12/29 03:43:40;;;;;;;1.43;1.00;;;9.80;99.90;;;;;;5075202;28;20444;-56
2021/12/29 03:46:09;;;;;;;1.70;1.60;;;9.90;99.90;;;;;;5076135;28;20949;-56
2021/12/29 03:48:38;;;;;;;2.40;1.23;;;9.80;99.90;;;;;;5076185;28;20452;-55
2021/12/29 03:51:05;;;;;;;1.30;1.10;;;9.80;99.90;;;;;;5076027;28;20468;-59
2021/12/29 03:53:33;;;;;;;1.40;1.20;;;9.80;99.90;;;;;;5076488;28;20448;-57
2021/12/29 03:56:01;;;;;;;1.30;1.10;;;9.90;99.90;;;;;;5076451;28;20451;-57
2021/12/29 03:58:29;;;;;;;2.13;1.00;;;9.90;99.90;;;;;;5076266;28;20448;-57
2021/12/29 04:00:59;;;;;;;1.80;1.10;;;9.90;99.90;;;;;;5076172;28;20488;-57
2021/12/29 04:03:28;;;;;;;1.10;1.00;;;9.90;99.90;;;;;;5076498;28;20425;-57
2021/12/29 04:05:55;;;;;;;2.70;1.30;;;9.80;99.90;;;;;;5076339;28;20459;-57
2021/12/29 04:08:23;;;;;;;1.30;1.17;;;9.90;99.90;;;;;;5075966;28;20429;-56
2021/12/29 04:10:50;;;;;;;1.20;1.10;;;9.90;99.90;;;;;;5075720;28;20476;-59
2021/12/29 04:13:17;;;;;;;1.80;1.13;;;9.80;99.90;;;;;;5076159;28;20444;-57
2021/12/29 04:15:44;;;;;;;1.33;1.10;;;9.70;99.90;;;;;;5075964;28;20793;-57
2021/12/29 04:18:25;;;;;;;1.63;1.10;;;9.60;99.90;;;;;;5075870;28;20448;-57
2021/12/29 04:20:57;;;;;;;1.20;1.10;;;9.50;99.90;;;;;;5075764;28;20492;-56
2021/12/29 04:23:27;;;;;;;1.50;1.40;;;9.50;99.90;;;;;;5076026;28;20437;-56
2021/12/29 04:25:55;;;;;;;1.83;1.20;;;9.50;99.90;;;;;;5075742;28;20513;-57
2021/12/29 04:28:25;;;;;;;1.23;1.13;;;9.50;99.90;;;;;;5075751;28;20455;-56
2021/12/29 04:30:56;;;;;;;1.60;1.07;;;9.50;99.90;;;;;;5076324;28;20460;-57
2021/12/29 04:33:24;;;;;;;1.30;1.20;;;9.60;99.90;;;;;;5075778;28;20437;-57
2021/12/29 04:35:51;;;;;;;3.03;1.33;;;9.60;99.90;;;;;;5075494;28;20460;-57
2021/12/29 04:38:21;;;;;;;2.10;1.90;;;9.60;99.90;;;;;;5075563;28;20451;-58
2021/12/29 04:40:50;;;;;;;1.20;1.10;;;9.60;99.90;;;;;;5075460;28;20488;-57
2021/12/29 04:43:17;;;;;;;1.80;1.17;;;9.60;99.90;;;;;;5075147;28;20460;-57
2021/12/29 04:45:45;;;;;;;5.73;1.13;;;9.60;99.90;;;;;;5075405;28;20445;-57
2021/12/29 04:48:13;;;;;;;1.40;1.10;;;9.70;99.90;;;;;;5075514;28;20479;-57
2021/12/29 04:50:42;;;;;;;2.10;2.00;;;9.60;99.90;;;;;;5074985;28;20553;-57
2021/12/29 04:53:11;;;;;;;1.20;1.10;;;9.40;99.90;;;;;;5074951;28;20452;-57
2021/12/29 04:55:45;;;;;;;1.70;1.40;;;9.40;99.90;;;;;;5074017;28;20539;-57
2021/12/29 04:58:13;;;;;;;1.30;1.20;;;9.40;99.90;;;;;;5075305;28;20475;-57
2021/12/29 05:00:40;;;;;;;1.33;1.10;;;9.40;99.90;;;;;;5074898;28;20973;-57
2021/12/29 05:03:07;;;;;;;1.83;1.70;;;9.50;99.90;;;;;;5074811;28;20429;-57
2021/12/29 05:05:53;;;;;;;4.40;1.23;;;9.40;99.90;;;;;;5075122;28;20551;-57
2021/12/29 05:08:25;;;;;;;1.20;1.10;;;9.30;99.90;;;;;;5075094;28;20531;-57
2021/12/29 05:10:59;;;;;;;1.20;1.10;;;9.40;99.90;;;;;;5074515;28;20508;-57
2021/12/29 05:13:27;;;;;;;1.47;1.10;;;9.50;99.90;;;;;;5074780;28;20471;-57
2021/12/29 05:15:56;;;;;;;1.40;1.30;;;9.60;99.90;;;;;;5074920;28;20452;-57
2021/12/29 05:18:24;;;;;;;1.27;1.17;;;9.60;99.90;;;;;;5075103;28;20452;-57
2021/12/29 05:20:56;;;;;;;1.27;1.17;;;9.30;99.90;;;;;;5074367;28;20476;-57
2021/12/29 05:23:24;;;;;;;2.47;1.50;;;9.20;99.90;;;;;;5074585;28;20818;-57
2021/12/29 05:25:52;;;;;;;3.80;1.47;;;9.20;99.90;;;;;;5074373;28;20448;-57
2021/12/29 05:28:23;;;;;;;1.90;1.43;;;9.30;99.90;;;;;;5074531;28;20452;-56
2021/12/29 05:30:51;;;;;;;3.93;2.30;;;9.30;99.90;;;;;;5074428;28;20492;-57
2021/12/29 05:33:19;;;;;;;1.70;1.60;;;9.30;99.90;;;;;;5074390;28;20448;-57
2021/12/29 05:35:46;;;;;;;1.20;1.10;;;9.10;99.90;;;;;;5074439;28;20460;-57
2021/12/29 05:38:13;;;;;;;1.23;1.10;;;9.20;99.90;;;;;;5074019;28;20431;-57
2021/12/29 05:40:40;;;;;;;1.77;1.50;;;9.20;99.90;;;;;;5074070;28;20494;-57
2021/12/29 05:43:07;;;;;;;3.13;1.20;;;9.20;99.90;;;;;;5074522;28;20456;-57
2021/12/29 05:45:36;;;;;;;1.23;1.13;;;9.20;99.90;;;;;;5074132;28;20447;-57
2021/12/29 05:48:04;;;;;;;1.47;1.10;;;9.40;99.90;;;;;;5074247;28;20449;-57
2021/12/29 05:50:32;;;;;;;2.27;1.33;;;9.40;99.90;;;;;;5074399;28;20468;-57
2021/12/29 05:53:01;;;;;;;7.23;1.50;;;9.50;99.90;;;;;;5073890;28;20456;-57
2021/12/29 05:55:29;;;;;;;1.57;1.30;;;9.50;99.90;;;;;;5074186;28;20485;-57
2021/12/29 05:57:56;;;;;;;1.47;1.30;;;9.60;99.90;;;;;;5073939;28;20444;-57
2021/12/29 06:00:25;;;;;;;1.30;1.17;;;9.50;99.90;;;;;;5073987;28;20469;-57
2021/12/29 06:02:55;;;;;;;1.43;1.33;;;9.60;99.90;;;;;;5073676;28;21010;-57
2021/12/29 06:05:23;;;;;;;2.30;1.40;;;9.60;99.90;;;;;;5073546;28;20459;-57
2021/12/29 06:07:50;;;;;;;1.60;1.50;;;9.60;99.90;;;;;;5073921;28;20425;-57
2021/12/29 06:10:17;;;;;;;3.10;1.50;;;9.50;99.90;;;;;;5073750;28;20472;-57
2021/12/29 06:12:45;;;;;;;5.33;1.77;;;9.50;99.90;;;;;;5073387;28;20455;-58
2021/12/29 06:15:12;;;;;;;1.50;1.40;;;9.60;99.90;;;;;;5073557;28;20950;-57
2021/12/29 06:17:40;;;;;;;2.60;1.90;;;9.60;99.90;;;;;;5073377;28;20947;-57
2021/12/29 06:20:12;;;;;;;2.57;1.40;;;9.60;99.90;;;;;;5073343;28;20464;-57
2021/12/29 06:22:39;;;;;;;5.53;1.60;;;9.60;99.90;;;;;;5073672;28;20494;-56
2021/12/29 06:25:09;;;;;;;2.77;1.70;;;9.70;99.90;;;;;;5073739;28;20448;-57
2021/12/29 06:27:36;;;;;;;2.43;1.50;;;9.70;99.90;;;;;;5073741;28;20459;-57
2021/12/29 06:30:05;;;;;;;3.33;1.40;;;9.60;99.90;;;;;;5073397;28;20475;-57
2021/12/29 06:32:32;;;;;;;3.73;1.40;;;9.50;99.90;;;;;;5073667;28;20570;-57
2021/12/29 06:34:59;;;;;;;2.13;1.50;;;9.50;99.90;;;;;;5073358;28;20447;-57
2021/12/29 06:37:28;;;;;;;2.70;1.57;;;9.60;99.90;;;;;;5073732;28;20976;-57
2021/12/29 06:39:55;;;;;;;2.87;1.70;;;9.70;99.90;;;;;;5073185;28;20444;-57
2021/12/29 06:42:23;;;;;;;1.60;1.50;;;9.50;99.90;;;;;;5073466;28;20513;-57
2021/12/29 06:44:50;;;;;;;1.60;1.50;;;9.60;99.90;;;;;;5073127;28;20448;-57
2021/12/29 06:47:17;;;;;;;2.40;1.50;;;9.60;99.90;;;;;;5073161;28;20939;-57
2021/12/29 06:49:45;;;;;;;2.57;1.47;;;9.70;99.90;;;;;;5073245;28;20496;-57
2021/12/29 06:52:12;;;;;;;2.87;1.40;;;9.70;99.90;;;;;;5072919;28;20436;-57
2021/12/29 06:54:41;;;;;;;1.30;1.20;;;9.70;99.90;;;;;;5073615;28;20527;-57
2021/12/29 06:57:08;;;;;;;2.90;1.40;;;9.70;99.90;;;;;;5073192;28;20459;-57
2021/12/29 06:59:35;;;;;;;1.47;1.37;;;9.60;99.90;;;;;;5073041;28;20448;-57
2021/12/29 07:02:03;;;;;;;2.60;1.50;;;9.50;99.90;;;;;;5073108;28;20563;-57
2021/12/29 07:04:30;;;;;;;2.57;1.80;;;9.50;99.90;;;;;;5072794;28;20555;-57
2021/12/29 07:06:59;;;;;;;1.87;1.30;;;9.50;99.90;;;;;;5073101;28;20467;-57
2021/12/29 07:09:26;;;;;;;1.83;1.40;;;9.60;99.90;;;;;;5073253;28;20872;-57
2021/12/29 07:11:55;;;;;;;1.23;1.13;;;9.50;99.90;;;;;;5072699;28;21065;-57
2021/12/29 07:14:22;;;;;;;1.97;1.33;;;9.50;99.90;;;;;;5072667;28;20459;-57
2021/12/29 07:16:50;;;;;;;1.60;1.30;;;9.40;99.90;;;;;;5073395;28;20447;-57
2021/12/29 07:19:19;;;;;;;3.10;1.67;;;9.40;99.90;;;;;;5076195;28;20806;-57
2021/12/29 07:21:48;;;;;;;3.73;1.50;;;9.50;99.90;;;;;;5076981;28;20488;-57
2021/12/29 07:24:16;;;;;;;3.67;1.50;;;9.40;99.90;;;;;;5076782;28;20432;-57
2021/12/29 07:26:44;;;;;;;1.50;1.23;;;9.40;99.90;;;;;;5076946;28;20827;-57
2021/12/29 07:29:12;;;;;;;2.37;1.43;;;9.40;99.90;;;;;;5076886;28;20455;-57
2021/12/29 07:31:40;;;;;;;3.67;2.23;;;9.40;99.90;;;;;;5076884;28;20464;-57
2021/12/29 07:34:07;;;;;;;1.40;1.30;;;9.50;99.90;;;;;;5076697;28;20450;-57
2021/12/29 07:36:35;;;;;;;1.40;1.27;;;9.50;99.90;;;;;;5076777;28;20474;-57
2021/12/29 07:39:02;;;;;;;2.10;1.43;;;9.50;99.90;;;;;;5076649;28;20444;-57
2021/12/29 07:41:29;;;;;;;5.67;1.80;;;9.40;99.90;;;;;;5076292;28;20490;-58
2021/12/29 07:43:57;;;;;;;4.37;1.87;;;9.30;99.90;;;;;;5076547;28;20547;-56
2021/12/29 07:46:31;;;;;;;1.57;1.40;;;9.30;99.90;;;;;;5076250;28;21008;-57
2021/12/29 07:48:59;;;;;;;4.90;1.73;;;9.30;99.90;;;;;;5076469;28;20437;-57
2021/12/29 07:51:26;;;;;;;2.07;1.30;;;9.30;99.90;;;;;;5076253;28;20464;-57
2021/12/29 07:53:53;;;;;;;1.43;1.10;;;9.30;99.90;;;;;;5076026;28;20899;-57
2021/12/29 07:56:20;;;;;;;1.80;1.50;;;9.10;99.90;;;;;;5076005;28;20447;-57
2021/12/29 07:58:52;;;;;;;2.50;1.60;;;9.20;99.90;;;;;;5076431;28;20450;-57
2021/12/29 08:01:19;;;;;;;1.27;1.17;;;9.10;99.90;;;;;;5075702;28;20859;-57
2021/12/29 08:03:47;;;;;;;4.83;1.70;;;9.10;99.90;;;;;;5075876;28;20425;-57
2021/12/29 08:06:17;;;;;;;2.27;1.40;;;9.20;99.90;;;;;;5076324;28;20462;-57
2021/12/29 08:08:44;;;;;;;4.50;1.47;;;9.20;99.90;;;;;;5075698;28;20452;-57
2021/12/29 08:11:11;;;;;;;4.27;1.70;;;9.10;99.90;;;;;;5075401;28;20558;-57
2021/12/29 08:13:39;;;;;;;1.57;1.47;;;9.20;99.90;;;;;;5076033;28;20444;-57
2021/12/29 08:16:06;;;;;;;1.40;1.30;;;9.10;99.90;;;;;;5075877;28;20476;-58
2021/12/29 08:18:34;;;;;;;4.00;1.77;;;9.10;99.90;;;;;;5075485;28;20444;-57
2021/12/29 08:21:02;;;;;;;2.90;1.80;;;9.20;99.90;;;;;;5075637;28;20468;-57
2021/12/29 08:23:29;;;;;;;2.03;1.70;;;9.30;99.90;;;;;;5075472;28;20777;-57
2021/12/29 08:25:56;;;;;;;2.67;1.60;;;9.30;99.90;;;;;;5075364;28;20471;-57
2021/12/29 08:28:24;;;;;;;2.57;1.57;;;9.50;99.90;;;;;;5075641;28;20440;-57
2021/12/29 08:30:51;;;;;;;5.03;1.67;;;9.60;99.90;;;;;;5075783;28;20468;-57
2021/12/29 08:33:18;;;;;;;2.90;1.77;;;9.70;99.90;;;;;;5075321;28;20444;-57
2021/12/29 08:35:45;;;;;;;1.60;1.50;;;9.80;99.90;;;;;;5075343;28;20452;-57
2021/12/29 08:38:14;;;;;;;1.50;1.40;;;9.90;99.90;;;;;;5075324;28;20421;-57
2021/12/29 08:40:41;;;;;;;2.07;1.97;;;9.90;99.90;;;;;;5075150;28;20464;-57
2021/12/29 08:43:08;;;;;;;1.80;1.70;;;9.90;99.90;;;;;;5075333;28;20480;-57
2021/12/29 08:45:37;;;;;;;2.23;2.03;;;9.90;99.90;;;;;;5075260;28;20539;-57
2021/12/29 08:48:05;;;;;;;2.13;1.50;;;9.90;99.90;;;;;;5075085;28;20939;-57
2021/12/29 08:50:33;;;;;;;1.60;1.50;;;9.90;99.90;;;;;;5074934;28;20465;-57
2021/12/29 08:53:02;;;;;;;2.23;1.60;;;9.80;99.90;;;;;;5075031;28;20997;-57
2021/12/29 08:55:32;;;;;;;2.30;1.43;;;9.90;99.90;;;;;;5074929;28;20451;-57
2021/12/29 08:57:59;;;;;;;2.40;2.10;;;9.90;99.90;;;;;;5075209;28;20478;-57
2021/12/29 09:00:27;;;;;;;2.97;1.87;;;9.90;99.90;;;;;;5075171;28;20464;-57
2021/12/29 09:02:55;;;;;;;2.53;1.67;;;10.00;99.90;;;;;;5075017;28;20480;-57
2021/12/29 09:05:22;;;;;;;2.37;2.17;;;10.00;99.90;;;;;;5074557;28;21073;-57
2021/12/29 09:07:49;;;;;;;4.80;1.80;;;10.00;99.90;;;;;;5074941;28;20425;-57
2021/12/29 09:10:18;;;;;;;2.50;2.03;;;9.90;99.90;;;;;;5074890;28;20467;-57
2021/12/29 09:12:49;;;;;;;3.20;1.80;;;10.00;99.90;;;;;;5074429;28;20554;-57
2021/12/29 09:15:17;;;;;;;2.80;2.60;;;10.00;99.90;;;;;;5074505;28;20490;-57
2021/12/29 09:17:44;;;;;;;2.60;1.70;;;10.10;99.90;;;;;;5074709;28;20535;-57
2021/12/29 09:20:16;;;;;;;3.60;1.47;;;10.20;99.90;;;;;;5074691;28;20500;-58
2021/12/29 09:22:44;;;;;;;4.47;2.10;;;10.20;99.90;;;;;;5074565;28;20469;-57
2021/12/29 09:25:11;;;;;;;3.63;1.70;;;10.20;99.90;;;;;;5074474;28;20470;-57
2021/12/29 09:27:39;;;;;;;2.20;2.00;;;10.20;99.90;;;;;;5074727;28;20551;-57
2021/12/29 09:30:09;;;;;;;2.33;2.13;;;10.20;99.90;;;;;;5074506;28;20551;-57
2021/12/29 09:32:36;;;;;;;2.20;2.00;;;10.30;99.90;;;;;;5074109;28;20935;-57
2021/12/29 09:35:03;;;;;;;2.77;2.27;;;10.40;99.90;;;;;;5074781;28;20451;-57
2021/12/29 09:37:31;;;;;;;1.97;1.63;;;10.40;99.90;;;;;;5074624;28;20463;-57
2021/12/29 09:39:59;;;;;;;3.57;2.23;;;10.40;99.90;;;;;;5073893;28;20951;-57
2021/12/29 09:42:26;;;;;;;2.90;1.93;;;10.50;99.90;;;;;;5074054;28;20486;-57
2021/12/29 09:44:53;;;;;;;2.10;1.90;;;10.50;99.90;;;;;;5074259;28;20455;-57
2021/12/29 09:47:22;;;;;;;3.83;2.13;;;10.60;99.90;;;;;;5073937;28;20448;-57
2021/12/29 09:49:49;;;;;;;1.83;1.53;;;10.60;99.90;;;;;;5074055;28;20935;-57
2021/12/29 09:52:16;;;;;;;4.20;1.60;;;10.70;99.90;;;;;;5073585;28;20777;-57
2021/12/29 09:54:44;;;;;;;2.20;1.43;;;10.60;99.90;;;;;;5074079;28;20444;-57
2021/12/29 09:57:11;;;;;;;2.90;1.90;;;10.40;99.90;;;;;;5073821;28;20539;-57
2021/12/29 09:59:39;;;;;;;2.83;1.80;;;10.50;99.90;;;;;;5073617;28;20661;-57
2021/12/29 10:02:06;;;;;;;1.60;1.40;;;10.70;99.90;;;;;;5073834;28;20480;-57
2021/12/29 10:04:37;;;;;;;2.30;1.70;;;10.80;99.90;;;;;;5073625;28;20444;-57
2021/12/29 10:07:16;;;;;;;2.00;1.70;;;10.80;99.90;;;;;;5074047;28;20460;-58
2021/12/29 10:09:43;;;;;;;2.87;2.27;;;10.80;99.90;;;;;;5073212;28;20448;-56
2021/12/29 10:12:17;;;;;;;1.90;1.80;;;10.80;99.90;;;;;;5073364;28;20813;-57
2021/12/29 10:14:49;;;;;;;3.17;1.70;;;10.80;99.90;;;;;;5073432;28;20432;-57
2021/12/29 10:17:17;;;;;;;3.07;2.20;;;10.80;99.90;;;;;;5073759;28;20472;-57
2021/12/29 10:19:46;;;;;;;2.10;1.90;;;10.80;99.90;;;;;;5073557;28;20468;-57
2021/12/29 10:22:21;;;;;;;6.80;2.53;;;10.70;99.90;;;;;;5073673;28;20516;-57
2021/12/29 10:24:49;;;;;;;2.50;2.33;;;10.70;99.90;;;;;;5073387;28;20447;-57
2021/12/29 10:27:19;;;;;;;6.00;2.87;;;10.70;99.90;;;;;;5073693;28;20448;-57
2021/12/29 10:29:47;;;;;;;2.60;2.40;;;10.80;99.90;;;;;;5073512;28;20433;-56
2021/12/29 10:32:23;;;;;;;4.60;2.67;;;10.70;99.90;;;;;;5073005;28;20953;-56
2021/12/29 10:34:54;;;;;;;2.83;2.43;;;10.80;99.90;;;;;;5073181;28;20519;-57
2021/12/29 10:37:23;;;;;;;3.13;2.83;;;10.80;99.90;;;;;;5073844;28;20453;-56
2021/12/29 10:39:55;;;;;;;5.20;2.40;;;10.80;99.90;;;;;;5073275;28;20448;-56
2021/12/29 10:42:25;;;;;;;3.60;2.43;;;10.80;99.90;;;;;;5073220;28;20496;-59
2021/12/29 10:44:55;;;;;;;4.07;2.63;;;10.70;99.90;;;;;;5073095;28;20512;-56
2021/12/29 10:47:25;;;;;;;4.73;2.20;;;10.80;99.90;;;;;;5072945;28;20903;-56
2021/12/29 10:49:56;;;;;;;6.50;2.80;;;10.80;99.90;;;;;;5073057;28;20452;-57
2021/12/29 10:52:32;;;;;;;3.00;2.37;;;;;;;;;;5071855;28;20929;-57
2021/12/29 10:54:59;;;;;;;3.60;2.17;;;;;;;;;;5073072;28;20451;-56
2021/12/29 10:57:27;;;;;;;6.87;2.57;;;11.00;99.90;;;;;;5072351;28;20429;-56
2021/12/29 11:00:02;;;;;;;2.67;1.90;;;11.00;99.90;;;;;;5072770;28;20538;-56
2021/12/29 11:02:35;;;;;;;4.80;2.30;;;11.10;99.90;;;;;;5072733;28;20494;-58
2021/12/29 11:05:07;;;;;;;3.80;2.40;;;11.10;99.90;;;;;;5072888;28;20448;-55
2021/12/29 11:07:36;;;;;;;3.30;2.23;;;11.10;99.90;;;;;;5066725;28;20467;-56
2021/12/29 11:10:11;;;;;;;3.87;2.13;;;11.00;99.90;;;;;;5070025;28;20476;-53
2021/12/29 11:12:46;;;;;;;10.83;2.30;;;11.10;99.90;;;;;;5069389;28;20529;-52
2021/12/29 11:15:18;;;;;;;4.40;2.73;;;10.90;99.90;;;;;;5069138;28;20447;-55
2021/12/29 11:17:45;;;;;;;2.53;2.03;;;11.00;99.90;;;;;;5069737;28;20428;-55
2021/12/29 11:20:19;;;;;;;4.77;2.30;;;11.00;99.90;;;;;;5067466;28;20455;-55
2021/12/29 11:22:46;;;;;;;3.57;1.70;;;11.20;99.90;;;;;;5061212;28;20960;-58
2021/12/29 11:25:14;;;;;;;3.10;1.90;;;11.00;99.90;;;;;;5061165;28;20447;-55
2021/12/29 11:27:41;;;;;;;3.47;2.33;;;11.10;99.90;;;;;;5060781;28;20447;-58
2021/12/29 11:30:12;;;;;;;2.00;1.80;;;11.00;99.90;;;;;;5059858;28;20502;-57
2021/12/29 11:32:42;;;;;;;2.03;1.70;;;11.10;99.90;;;;;;5060254;28;20918;-58
2021/12/29 11:35:14;;;;;;;3.53;2.40;;;11.10;99.90;;;;;;5060226;28;20963;-57
2021/12/29 11:37:44;;;;;;;5.33;1.63;;;11.20;99.90;;;;;;5060591;28;20745;-58
2021/12/29 11:40:14;;;;;;;1.90;1.60;;;11.20;99.90;;;;;;5056971;28;20475;-54
2021/12/29 11:42:41;;;;;;;3.73;2.33;;;11.10;99.90;;;;;;5057044;28;20484;-55
2021/12/29 11:45:10;;;;;;;3.07;2.10;;;11.10;99.90;;;;;;5061872;28;20482;-55
2021/12/29 11:47:38;;;;;;;2.40;1.93;;;11.10;99.90;;;;;;5059820;28;20759;-55
2021/12/29 11:50:07;;;;;;;3.40;1.87;;;11.20;99.90;;;;;;5066667;28;20950;-54
2021/12/29 11:52:59;;;;;;;3.90;1.70;;;11.20;99.90;;;;;;5061716;28;20447;-56
2021/12/29 11:55:31;;;;;;;2.90;1.77;;;11.30;99.90;;;;;;5060714;28;20432;-56
2021/12/29 11:58:09;;;;;;;3.80;1.90;;;11.30;99.90;;;;;;5059098;28;20970;-55
2021/12/29 12:00:36;;;;;;;2.63;2.20;;;11.20;99.90;;;;;;5060850;28;20501;-56
2021/12/29 12:03:08;;;;;;;2.30;1.70;;;11.10;99.90;;;;;;5059633;28;20483;-55
2021/12/29 12:05:38;;;;;;;2.67;1.80;;;11.10;99.90;;;;;;5063863;28;20470;-55
2021/12/29 12:08:12;;;;;;;2.47;1.60;;;11.00;99.90;;;;;;5064501;28;20436;-54
2021/12/29 12:10:40;;;;;;;5.23;2.07;;;10.90;99.90;;;;;;5064359;28;20459;-55
2021/12/29 12:13:22;;;;;;;3.40;1.70;;;10.90;99.90;;;;;;5069998;28;20937;-52
2021/12/29 12:15:51;;;;;;;1.93;1.57;;;10.80;99.90;;;;;;5065277;28;20428;-54
2021/12/29 12:18:18;;;;;;;2.10;1.57;;;11.10;99.90;;;;;;5064208;28;20455;-55
2021/12/29 12:20:47;;;;;;;2.53;1.90;;;11.30;99.90;;;;;;5061005;28;20955;-56
2021/12/29 12:23:29;;;;;;;3.13;1.47;;;11.40;99.90;;;;;;5063392;28;21104;-56
2021/12/29 12:26:11;;;;;;;4.60;2.00;;;11.40;99.90;;;;;;5062008;28;21277;-54
2021/12/29 12:28:44;;;;;;;4.20;1.87;;;11.30;99.90;;;;;;5064614;28;20880;-54
2021/12/29 12:31:22;;;;;;;3.10;1.60;;;11.20;99.90;;;;;;5062009;28;20474;-55
2021/12/29 12:33:49;;;;;;;4.93;2.73;;;11.20;99.90;;;;;;5063375;28;20428;-56
2021/12/29 12:36:17;;;;;;;8.53;2.40;;;11.20;99.90;;;;;;5064430;28;20458;-56
2021/12/29 12:38:47;;;;;;;3.40;2.10;;;11.20;99.90;;;;;;5062114;28;20455;-54
2021/12/29 12:41:16;;;;;;;5.17;2.47;;;11.30;99.90;;;;;;5063341;28;20948;-54
2021/12/29 12:43:52;;;;;;;5.33;2.10;;;11.30;99.90;;;;;;5063873;28;20999;-48
2021/12/29 12:46:29;;;;;;;6.37;1.83;;;11.40;99.90;;;;;;5059318;28;21128;-56
2021/12/29 12:48:56;;;;;;;3.20;2.23;;;11.30;99.90;;;;;;5061311;28;20443;-57
2021/12/29 12:51:24;;;;;;;2.90;2.20;;;11.30;99.90;;;;;;5062683;28;20504;-57
2021/12/29 12:53:53;;;;;;;6.70;2.20;;;11.20;99.90;;;;;;5063651;28;20451;-59
2021/12/29 12:56:22;;;;;;;9.60;3.30;;;11.30;99.90;;;;;;5062790;28;20440;-60
2021/12/29 12:58:52;;;;;;;3.17;2.40;;;11.20;99.90;;;;;;5062532;28;20443;-57
2021/12/29 13:01:23;;;;;;;3.53;2.10;;;11.30;99.90;;;;;;5062967;28;20467;-59
2021/12/29 13:03:53;;;;;;;3.80;1.80;;;11.20;99.90;;;;;;5061423;28;20479;-59
2021/12/29 13:06:23;;;;;;;3.13;2.43;;;11.30;99.90;;;;;;5061748;28;20462;-57